createdAt,value
2022-08-26T00:00:57.452Z,7.40
2022-08-26T00:06:01.548Z,6.60
2022-08-26T00:11:07.799Z,6.60
2022-08-26T00:16:13.667Z,7.00
2022-08-26T00:21:19.053Z,7.60
2022-08-26T00:26:23.449Z,6.90
2022-08-26T00:31:33.431Z,9.30
2022-08-26T00:36:40.754Z,10.00
2022-08-26T00:41:45.184Z,10.00
2022-08-26T00:47:00.368Z,8.80
2022-08-26T00:52:13.282Z,8.10
2022-08-26T00:57:21.896Z,7.50
2022-08-26T01:02:26.506Z,7.40
2022-08-26T01:07:35.466Z,7.10
2022-08-26T01:12:51.640Z,6.40
2022-08-26T01:17:55.985Z,6.50
2022-08-26T01:23:05.146Z,6.70
2022-08-26T01:28:17.349Z,7.20
2022-08-26T01:33:42.232Z,7.70
2022-08-26T01:38:47.357Z,6.50
2022-08-26T01:43:56.237Z,6.00
2022-08-26T01:49:06.477Z,5.30
2022-08-26T01:54:13.876Z,5.40
2022-08-26T01:59:20.788Z,4.50
2022-08-26T02:04:34.422Z,5.00
2022-08-26T02:09:41.632Z,4.50
2022-08-26T02:14:54.336Z,4.40
2022-08-26T02:19:59.201Z,4.40
2022-08-26T02:25:52.452Z,4.40
2022-08-26T02:30:56.834Z,4.10
2022-08-26T02:36:01.332Z,4.20
2022-08-26T02:41:06.507Z,4.10
2022-08-26T02:46:12.313Z,4.30
2022-08-26T02:51:25.817Z,3.90
2022-08-26T02:56:30.055Z,3.40
2022-08-26T03:01:36.902Z,3.60
2022-08-26T03:06:41.547Z,4.20
2022-08-26T03:11:47.654Z,4.60
2022-08-26T03:16:54.852Z,4.70
2022-08-26T03:22:00.216Z,4.50
2022-08-26T03:27:07.272Z,4.30
2022-08-26T03:32:11.608Z,4.40
2022-08-26T03:37:16.126Z,5.10
2022-08-26T03:42:22.664Z,4.70
2022-08-26T03:47:26.751Z,5.00
2022-08-26T03:52:31.996Z,4.50
2022-08-26T03:57:36.653Z,5.60
2022-08-26T04:02:40.962Z,6.20
2022-08-26T04:07:46.815Z,6.20
2022-08-26T04:12:52.772Z,7.20
2022-08-26T04:17:57.267Z,6.20
2022-08-26T04:23:02.209Z,6.70
2022-08-26T04:28:07.315Z,7.90
2022-08-26T04:33:14.329Z,9.00
2022-08-26T04:38:20.525Z,7.50
2022-08-26T04:43:30.920Z,9.30
2022-08-26T04:48:35.944Z,8.40
2022-08-26T04:53:40.413Z,8.50
2022-08-26T04:58:44.835Z,8.10
2022-08-26T05:03:50.338Z,8.50
2022-08-26T05:08:56.078Z,9.20
2022-08-26T05:14:02.340Z,8.70
2022-08-26T05:19:08.385Z,7.90
2022-08-26T05:24:13.488Z,9.10
2022-08-26T05:29:18.048Z,8.10
2022-08-26T05:34:25.743Z,8.70
2022-08-26T05:39:35.233Z,7.00
2022-08-26T05:44:53.819Z,7.70
2022-08-26T05:50:02.628Z,7.60
2022-08-26T05:55:07.550Z,7.90
2022-08-26T06:00:15.985Z,7.00
2022-08-26T06:05:21.105Z,7.30
2022-08-26T06:10:32.401Z,7.70
2022-08-26T06:15:46.051Z,8.00
2022-08-26T06:20:57.689Z,7.50
2022-08-26T06:26:04.073Z,8.40
2022-08-26T06:31:08.322Z,8.80
2022-08-26T06:36:22.138Z,9.90
2022-08-26T06:41:28.572Z,9.30
2022-08-26T06:46:33.779Z,9.50
2022-08-26T06:51:41.286Z,7.20
2022-08-26T06:56:45.559Z,7.70
2022-08-26T07:01:53.541Z,7.20
2022-08-26T07:06:58.428Z,6.20
2022-08-26T07:12:02.839Z,8.10
2022-08-26T07:17:12.178Z,7.60
2022-08-26T07:22:19.202Z,6.80
2022-08-26T07:27:26.392Z,7.90
2022-08-26T07:32:30.645Z,6.90
2022-08-26T07:37:39.227Z,7.10
2022-08-26T07:42:43.718Z,7.00
2022-08-26T07:47:48.577Z,6.50
2022-08-26T07:52:52.610Z,7.80
2022-08-26T07:57:58.420Z,6.10
2022-08-26T08:03:06.390Z,6.60
2022-08-26T08:08:17.320Z,7.60
2022-08-26T08:13:33.464Z,6.90
2022-08-26T08:18:37.540Z,7.70
2022-08-26T08:23:41.888Z,7.20
2022-08-26T08:28:49.402Z,5.90
2022-08-26T08:33:54.347Z,6.70
2022-08-26T08:38:58.390Z,6.10
2022-08-26T08:44:04.531Z,6.30
2022-08-26T08:49:11.583Z,6.90
2022-08-26T08:54:16.531Z,7.30
2022-08-26T08:59:24.588Z,7.70
2022-08-26T09:05:17.810Z,7.30
2022-08-26T09:10:34.119Z,8.00
2022-08-26T09:16:17.439Z,7.30
2022-08-26T09:21:26.213Z,6.30
2022-08-26T09:26:48.170Z,6.80
2022-08-26T09:32:14.253Z,6.30
2022-08-26T09:43:09.408Z,5.80
2022-08-26T09:48:36.646Z,5.90
2022-08-26T09:54:30.248Z,5.40
2022-08-26T09:59:34.892Z,6.20
2022-08-26T10:04:39.284Z,5.90
2022-08-26T10:09:45.057Z,5.60
2022-08-26T10:14:57.134Z,5.90
2022-08-26T10:20:37.071Z,6.00
2022-08-26T10:25:54.099Z,6.40
2022-08-26T10:31:51.410Z,7.30
2022-08-26T10:37:16.254Z,5.90
2022-08-26T10:43:00.489Z,6.70
2022-08-26T10:48:18.679Z,5.00
2022-08-26T10:54:00.874Z,5.50
2022-08-26T10:59:33.084Z,5.80
2022-08-26T11:04:56.278Z,5.60
2022-08-26T11:10:22.606Z,6.70
2022-08-26T11:16:03.295Z,5.60
2022-08-26T11:21:57.449Z,5.60
2022-08-26T11:27:06.815Z,6.40
2022-08-26T11:32:56.667Z,6.20
2022-08-26T11:38:32.286Z,5.90
2022-08-26T11:43:43.358Z,4.90
2022-08-26T11:48:49.306Z,5.60
2022-08-26T11:54:13.242Z,5.80
2022-08-26T12:04:49.941Z,5.80
2022-08-26T12:10:02.710Z,5.40
2022-08-26T12:15:23.478Z,5.20
2022-08-26T12:20:55.090Z,4.80
2022-08-26T12:26:23.771Z,5.00
2022-08-26T12:31:32.173Z,5.70
2022-08-26T12:36:47.492Z,5.60
2022-08-26T12:41:58.406Z,5.50
2022-08-26T12:47:35.199Z,5.90
2022-08-26T12:53:13.180Z,6.10
2022-08-26T12:58:17.824Z,5.70
2022-08-26T13:03:48.680Z,5.10
2022-08-26T13:08:58.295Z,5.60
2022-08-26T13:14:23.779Z,5.50
2022-08-26T13:19:30.152Z,5.30
2022-08-26T13:24:42.919Z,5.80
2022-08-26T13:29:48.579Z,5.50
2022-08-26T13:34:57.606Z,6.10
2022-08-26T13:40:07.460Z,5.20
2022-08-26T13:45:12.622Z,6.40
2022-08-26T13:50:17.080Z,5.50
2022-08-26T13:55:21.528Z,5.80
2022-08-26T14:00:26.842Z,5.20
2022-08-26T14:05:31.972Z,5.30
2022-08-26T14:10:37.536Z,5.30
2022-08-26T14:15:42.771Z,5.90
2022-08-26T14:20:51.254Z,6.10
2022-08-26T14:25:57.460Z,6.10
2022-08-26T14:31:05.257Z,5.20
2022-08-26T14:36:29.733Z,5.20
2022-08-26T14:41:41.170Z,5.90
2022-08-26T14:46:51.399Z,5.20
2022-08-26T14:52:14.375Z,5.60
2022-08-26T14:57:23.876Z,5.20
2022-08-26T15:02:33.146Z,5.20
2022-08-26T15:07:40.333Z,6.10
2022-08-26T15:12:45.642Z,5.50
2022-08-26T15:17:51.203Z,5.50
2022-08-26T15:28:02.303Z,5.90
2022-08-26T15:33:15.227Z,6.60
2022-08-26T15:38:22.081Z,6.30
2022-08-26T15:43:28.975Z,6.10
2022-08-26T15:48:33.335Z,5.70
2022-08-26T15:53:37.691Z,6.40
2022-08-26T15:58:44.904Z,6.90
2022-08-26T16:03:56.074Z,6.30
2022-08-26T16:09:01.100Z,7.30
2022-08-26T16:19:12.371Z,7.30
2022-08-26T16:24:17.651Z,7.00
2022-08-26T16:29:23.782Z,6.50
2022-08-26T16:34:28.043Z,6.60
2022-08-26T16:39:32.190Z,7.70
2022-08-26T16:44:46.151Z,7.80
2022-08-26T16:49:52.131Z,7.60
2022-08-26T16:54:56.594Z,8.80
2022-08-26T17:00:07.937Z,8.10
2022-08-26T17:05:15.688Z,8.20
2022-08-26T17:10:21.296Z,8.20
2022-08-26T17:15:26.350Z,8.50
2022-08-26T17:20:30.731Z,7.30
2022-08-26T17:25:37.782Z,8.10
2022-08-26T17:30:43.446Z,8.10
2022-08-26T17:35:47.450Z,7.90
2022-08-26T17:40:52.577Z,7.90
2022-08-26T17:46:06.878Z,7.90
2022-08-26T17:51:17.104Z,7.70
2022-08-26T17:56:26.934Z,7.40
2022-08-26T18:01:31.976Z,8.10
2022-08-26T18:06:36.420Z,8.80
2022-08-26T18:11:41.797Z,8.80
2022-08-26T18:16:46.534Z,9.90
2022-08-26T18:21:52.539Z,8.20
2022-08-26T18:26:57.779Z,9.30
2022-08-26T18:32:02.115Z,7.70
2022-08-26T18:43:17.062Z,7.90
2022-08-26T18:48:24.873Z,8.50
2022-08-26T18:53:32.114Z,8.70
2022-08-26T18:58:41.599Z,9.30
2022-08-26T19:03:47.004Z,9.10
2022-08-26T19:08:51.715Z,6.70
2022-08-26T19:13:58.247Z,7.60
2022-08-26T19:19:04.135Z,7.90
2022-08-26T19:24:17.688Z,7.80
2022-08-26T19:29:25.350Z,7.70
2022-08-26T19:34:30.618Z,8.50
2022-08-26T19:39:35.362Z,8.70
2022-08-26T19:44:59.140Z,8.10
2022-08-26T19:50:07.652Z,9.00
2022-08-26T19:55:20.588Z,8.20
2022-08-26T20:00:30.284Z,7.20
2022-08-26T20:05:35.438Z,8.30
2022-08-26T20:10:40.216Z,8.00
2022-08-26T20:15:47.400Z,8.10
2022-08-26T20:21:10.978Z,9.30
2022-08-26T20:26:15.240Z,8.30
2022-08-26T20:31:20.057Z,8.10
2022-08-26T20:36:30.000Z,8.80
2022-08-26T20:41:34.389Z,8.40
2022-08-26T20:46:39.283Z,9.00
2022-08-26T20:51:45.012Z,8.60
2022-08-26T20:56:53.088Z,8.10
2022-08-26T21:01:59.479Z,8.70
2022-08-26T21:07:03.872Z,8.90
2022-08-26T21:12:09.981Z,8.00
2022-08-26T21:17:14.788Z,8.30
2022-08-26T21:22:21.997Z,8.30
2022-08-26T21:27:27.902Z,8.20
2022-08-26T21:32:33.469Z,7.30
2022-08-26T21:37:37.589Z,8.40
2022-08-26T21:42:41.937Z,7.80
2022-08-26T21:47:46.979Z,8.40
2022-08-26T21:52:51.069Z,8.60
2022-08-26T21:57:55.568Z,9.10
2022-08-26T22:03:01.444Z,7.50
2022-08-26T22:08:05.650Z,8.40
2022-08-26T22:13:10.668Z,8.00
2022-08-26T22:18:16.346Z,9.00
2022-08-26T22:23:21.427Z,8.30
2022-08-26T22:28:26.509Z,8.20
2022-08-26T22:33:30.672Z,8.90
2022-08-26T22:38:35.507Z,8.50
2022-08-26T22:43:39.816Z,8.30
2022-08-26T22:48:44.389Z,8.30
2022-08-26T22:53:48.534Z,7.80
2022-08-26T22:58:54.005Z,8.60
2022-08-26T23:03:58.439Z,7.70
2022-08-26T23:09:02.810Z,7.90
2022-08-26T23:14:10.670Z,8.70
2022-08-26T23:19:18.088Z,9.00
2022-08-26T23:24:22.660Z,8.30
2022-08-26T23:29:28.280Z,8.80
2022-08-26T23:34:51.918Z,8.60
2022-08-26T23:39:56.925Z,9.20
2022-08-26T23:45:01.657Z,9.50
2022-08-26T23:50:08.221Z,8.70
2022-08-26T23:55:14.022Z,8.40
